Time;durP1;ratioP1;P1;durP2;ratioP2;P2;SDS_P1;SDS_P2;PMS_P1;PMS_P2;Temp;Humidity;BMP_temperature;BMP_pressure;BME280_temperature;BME280_humidity;BME280_pressure;Samples;Min_cycle;Max_cycle;Signal;HPM_P1;HPM_P2
2022/09/08 00:02:11;;;;;;;4.40;2.90;;;20.80;99.90;;;;;;10476837;28;20226;-72
2022/09/08 00:07:11;;;;;;;5.43;2.67;;;20.60;99.90;;;;;;10468315;28;20242;-73
2022/09/08 00:12:13;;;;;;;8.67;2.80;;;20.50;99.90;;;;;;10473508;28;20219;-71
2022/09/08 00:17:17;;;;;;;6.27;2.73;;;20.00;99.90;;;;;;10465891;28;20216;-70
2022/09/08 00:22:17;;;;;;;5.30;3.27;;;19.60;99.90;;;;;;10467242;28;20226;-71
2022/09/08 00:27:18;;;;;;;5.90;3.17;;;19.40;99.90;;;;;;10474489;28;20232;-71
2022/09/08 00:32:19;;;;;;;5.87;3.73;;;19.30;99.90;;;;;;10468207;28;20218;-72
2022/09/08 00:37:21;;;;;;;5.20;3.10;;;19.30;99.90;;;;;;10467792;28;20218;-72
2022/09/08 00:42:21;;;;;;;4.03;2.97;;;19.40;99.90;;;;;;10474976;28;20681;-72
2022/09/08 00:47:32;;;;;;;6.80;3.00;;;19.40;99.90;;;;;;10467152;28;20237;-71
2022/09/08 00:52:43;;;;;;;7.13;3.07;;;19.40;99.90;;;;;;10468788;28;20577;-71
2022/09/08 00:57:43;;;;;;;4.70;2.90;;;19.50;99.90;;;;;;10469670;28;20683;-73
2022/09/08 01:02:45;;;;;;;5.77;3.10;;;19.60;99.90;;;;;;10474865;28;20237;-70
2022/09/08 01:13:08;;;;;;;3.80;3.00;;;19.70;99.90;;;;;;10472767;28;20298;-73
2022/09/08 01:18:12;;;;;;;4.10;2.90;;;19.70;99.90;;;;;;10476039;28;20258;-73
2022/09/08 01:23:34;;;;;;;5.67;2.97;;;19.70;99.90;;;;;;10467459;28;20554;-74
2022/09/08 01:28:57;;;;;;;3.87;2.37;;;19.70;99.90;;;;;;10470470;28;20706;-73
2022/09/08 01:34:01;;;;;;;3.80;2.40;;;19.80;99.90;;;;;;10477799;28;20240;-72
2022/09/08 01:39:05;;;;;;;3.20;2.13;;;19.70;99.90;;;;;;10478209;28;20301;-72
2022/09/08 01:44:06;;;;;;;3.60;2.57;;;19.60;99.90;;;;;;10476357;28;20223;-71
2022/09/08 01:49:06;;;;;;;2.63;2.33;;;19.60;99.90;;;;;;10479508;28;20250;-72
2022/09/08 01:54:07;;;;;;;4.57;2.20;;;19.40;99.90;;;;;;10475630;28;20694;-73
2022/09/08 01:59:07;;;;;;;2.40;2.20;;;19.40;99.90;;;;;;10481385;28;20253;-73
2022/09/08 02:04:09;;;;;;;4.53;2.27;;;19.40;99.90;;;;;;10473611;28;20232;-72
2022/09/08 02:09:10;;;;;;;2.90;1.93;;;19.40;99.90;;;;;;10477542;28;20613;-73
2022/09/08 02:14:10;;;;;;;3.20;2.87;;;19.40;99.90;;;;;;10471218;28;20654;-73
2022/09/08 02:19:12;;;;;;;6.10;3.27;;;19.40;99.90;;;;;;10473172;28;20226;-70
2022/09/08 02:24:12;;;;;;;3.40;2.20;;;19.40;99.90;;;;;;10473756;28;20222;-72
2022/09/08 02:29:13;;;;;;;2.93;2.20;;;19.40;99.90;;;;;;10479615;28;20321;-72
2022/09/08 02:34:13;;;;;;;3.20;2.40;;;19.50;99.90;;;;;;10480057;28;20226;-73
2022/09/08 02:39:18;;;;;;;3.17;2.83;;;19.40;99.90;;;;;;10472529;28;20694;-73
2022/09/08 02:44:19;;;;;;;4.07;2.80;;;19.40;99.90;;;;;;10470681;28;20644;-73
2022/09/08 02:49:20;;;;;;;2.43;2.20;;;19.30;99.90;;;;;;10479725;28;20372;-72
2022/09/08 02:54:21;;;;;;;3.10;2.60;;;19.30;99.90;;;;;;10463588;28;20694;-72
2022/09/08 02:59:22;;;;;;;4.97;2.90;;;19.30;99.90;;;;;;10471244;28;20250;-73
2022/09/08 03:04:22;;;;;;;3.70;2.40;;;19.30;99.90;;;;;;10478968;28;20240;-71
2022/09/08 03:09:23;;;;;;;3.63;2.60;;;19.30;99.90;;;;;;10461440;28;20682;-71
2022/09/08 03:14:23;;;;;;;3.67;2.60;;;19.20;99.90;;;;;;10476905;28;20214;-71
2022/09/08 03:19:27;;;;;;;4.43;3.17;;;19.20;99.90;;;;;;10470665;28;20699;-70
2022/09/08 03:24:33;;;;;;;7.03;4.43;;;19.20;99.90;;;;;;10478196;28;20304;-73
2022/09/08 03:29:34;;;;;;;4.17;3.30;;;19.30;99.90;;;;;;10470294;28;20215;-71
2022/09/08 03:34:37;;;;;;;3.90;3.17;;;19.20;99.90;;;;;;10475654;28;20589;-71
2022/09/08 03:39:37;;;;;;;3.43;3.00;;;19.10;99.90;;;;;;10471922;28;20226;-71
2022/09/08 03:44:38;;;;;;;4.60;3.00;;;19.10;99.90;;;;;;10474875;28;20221;-72
2022/09/08 03:49:38;;;;;;;4.03;2.67;;;19.00;99.90;;;;;;10471098;28;20584;-71
2022/09/08 03:54:48;;;;;;;4.63;3.40;;;19.00;99.90;;;;;;10468974;28;20305;-72
2022/09/08 03:59:49;;;;;;;3.90;2.60;;;18.90;99.90;;;;;;10474338;28;20227;-72
2022/09/08 04:04:53;;;;;;;3.20;2.80;;;18.90;99.90;;;;;;10463161;28;20249;-70
2022/09/08 04:09:54;;;;;;;4.97;3.43;;;18.90;99.90;;;;;;10472146;28;20694;-73
2022/09/08 04:14:55;;;;;;;8.23;4.90;;;18.80;99.90;;;;;;10473004;28;20288;-67
2022/09/08 04:19:55;;;;;;;13.33;7.67;;;17.80;99.90;;;;;;10470648;28;20227;-67
2022/09/08 04:24:56;;;;;;;11.87;8.53;;;17.60;99.90;;;;;;10470857;28;20268;-67
2022/09/08 04:29:57;;;;;;;18.93;10.23;;;17.60;99.90;;;;;;10469230;28;20225;-69
2022/09/08 04:34:57;;;;;;;27.07;13.63;;;17.60;99.90;;;;;;10474449;28;20223;-68
2022/09/08 04:39:59;;;;;;;41.40;18.23;;;17.70;99.90;;;;;;10467481;28;20696;-67
2022/09/08 04:45:00;;;;;;;17.70;11.63;;;17.80;99.90;;;;;;10466297;28;20360;-68
2022/09/08 04:50:00;;;;;;;22.97;12.07;;;17.70;99.90;;;;;;10467829;28;20365;-68
2022/09/08 04:55:02;;;;;;;18.87;11.50;;;17.70;99.90;;;;;;10470026;28;20225;-69
2022/09/08 05:00:04;;;;;;;22.90;13.23;;;17.70;99.90;;;;;;10470069;28;20232;-68
2022/09/08 05:05:05;;;;;;;25.40;14.23;;;17.60;99.90;;;;;;10471013;28;20234;-68
2022/09/08 05:10:07;;;;;;;38.53;18.23;;;17.60;99.90;;;;;;10479263;28;20322;-68
2022/09/08 05:15:08;;;;;;;45.50;20.67;;;17.70;99.90;;;;;;10475918;28;20265;-68
2022/09/08 05:20:09;;;;;;;37.33;18.50;;;17.60;99.90;;;;;;10477672;28;20268;-72
2022/09/08 05:25:09;;;;;;;32.47;17.17;;;17.70;99.90;;;;;;10476037;28;20215;-73
2022/09/08 05:30:10;;;;;;;34.30;16.73;;;17.60;99.90;;;;;;10473943;28;20260;-71
2022/09/08 05:35:11;;;;;;;25.73;13.43;;;17.50;99.90;;;;;;10472104;28;20585;-71
2022/09/08 05:40:12;;;;;;;39.90;18.10;;;17.30;99.90;;;;;;10477232;28;20188;-71
2022/09/08 05:45:12;;;;;;;25.07;14.17;;;17.30;99.90;;;;;;10488999;28;20272;-71
2022/09/08 05:50:13;;;;;;;26.73;14.37;;;17.20;99.90;;;;;;10479391;28;20220;-71
2022/09/08 05:55:14;;;;;;;24.30;15.40;;;17.30;99.90;;;;;;10480583;28;20705;-71
2022/09/08 06:00:17;;;;;;;26.57;16.10;;;17.40;99.90;;;;;;10474359;28;20200;-72
2022/09/08 06:05:22;;;;;;;23.97;15.93;;;17.40;99.90;;;;;;10480261;28;20209;-72
2022/09/08 06:10:24;;;;;;;46.70;21.97;;;17.50;99.90;;;;;;10473790;28;20236;-72
2022/09/08 06:15:24;;;;;;;30.90;17.47;;;17.50;99.90;;;;;;10479962;28;20227;-72
2022/09/08 06:20:25;;;;;;;47.40;20.93;;;17.50;99.90;;;;;;10480666;28;20213;-72
2022/09/08 06:25:26;;;;;;;38.77;19.27;;;17.50;99.90;;;;;;10479521;28;20229;-71
2022/09/08 06:30:27;;;;;;;33.20;18.97;;;17.50;99.90;;;;;;10471669;28;20222;-71
2022/09/08 06:35:50;;;;;;;40.47;20.73;;;17.60;99.90;;;;;;10471938;28;20242;-70
2022/09/08 06:41:16;;;;;;;43.33;21.93;;;17.70;99.90;;;;;;10476092;28;20222;-71
2022/09/08 06:46:24;;;;;;;50.47;24.10;;;17.70;99.90;;;;;;10478151;28;20246;-71
2022/09/08 06:52:00;;;;;;;51.10;24.43;;;17.60;99.90;;;;;;10462811;28;20594;-71
2022/09/08 06:57:09;;;;;;;50.10;25.70;;;17.60;99.90;;;;;;10472547;28;20255;-72
2022/09/08 07:02:28;;;;;;;59.77;27.40;;;17.70;99.90;;;;;;10470012;28;20684;-71
2022/09/08 07:07:31;;;;;;;64.60;29.30;;;17.70;99.90;;;;;;10463727;28;20241;-72
2022/09/08 07:13:17;;;;;;;52.30;24.77;;;17.80;99.90;;;;;;10467371;28;20582;-71
2022/09/08 07:18:37;;;;;;;48.03;21.83;;;17.90;99.90;;;;;;10454371;28;20317;-71
2022/09/08 07:23:39;;;;;;;41.23;18.80;;;18.10;99.90;;;;;;10466745;28;20680;-72
2022/09/08 07:28:44;;;;;;;20.63;10.10;;;18.10;99.90;;;;;;10470146;28;20229;-71
2022/09/08 07:33:47;;;;;;;14.10;8.93;;;18.10;99.90;;;;;;10468979;28;20225;-72
2022/09/08 07:38:49;;;;;;;12.97;6.47;;;18.10;99.90;;;;;;10473736;28;20226;-72
2022/09/08 07:43:57;;;;;;;9.40;5.07;;;18.10;99.90;;;;;;10475487;28;20233;-72
2022/09/08 07:49:16;;;;;;;9.83;5.70;;;18.00;99.90;;;;;;10473750;28;20250;-71
2022/09/08 07:54:21;;;;;;;7.97;4.27;;;18.20;99.90;;;;;;10475781;28;20235;-72
2022/09/08 07:59:34;;;;;;;5.03;4.00;;;18.30;99.90;;;;;;10476365;28;20311;-72
2022/09/08 08:04:53;;;;;;;6.17;3.40;;;18.20;99.90;;;;;;10460831;28;20564;-72
2022/09/08 08:10:22;;;;;;;7.60;2.90;;;18.60;99.90;;;;;;10472116;28;20258;-73
2022/09/08 08:15:32;;;;;;;5.03;2.30;;;18.90;99.90;;;;;;10464550;28;20262;-72
2022/09/08 08:20:40;;;;;;;3.30;2.10;;;19.00;99.90;;;;;;10462458;28;20329;-71
2022/09/08 08:25:55;;;;;;;4.20;2.00;;;19.30;99.90;;;;;;10474177;28;20268;-72
2022/09/08 08:30:58;;;;;;;5.13;1.70;;;19.80;99.90;;;;;;10472004;28;20701;-72
2022/09/08 08:36:10;;;;;;;2.87;1.20;;;20.80;99.90;;;;;;10466921;28;20212;-72
2022/09/08 08:41:33;;;;;;;3.20;1.30;;;22.10;99.90;;;;;;10472693;28;20219;-73
2022/09/08 08:46:55;;;;;;;2.13;1.40;;;24.00;99.90;;;;;;10478301;28;20297;-71
2022/09/08 08:51:59;;;;;;;1.17;0.90;;;29.50;99.90;;;;;;10474963;28;20741;-72
2022/09/08 08:57:37;;;;;;;1.13;1.03;;;31.90;79.40;;;;;;10479993;28;20223;-73
2022/09/08 09:03:10;;;;;;;0.77;0.70;;;32.70;70.30;;;;;;10470742;28;20679;-73
2022/09/08 09:08:19;;;;;;;2.97;0.70;;;35.20;59.00;;;;;;10469206;28;20230;-71
2022/09/08 09:13:50;;;;;;;1.03;0.70;;;35.60;52.70;;;;;;10473498;28;20738;-73
2022/09/08 09:19:14;;;;;;;2.03;0.90;;;31.30;58.60;;;;;;10469833;28;20223;-72
2022/09/08 09:24:24;;;;;;;5.03;1.40;;;28.20;70.70;;;;;;10481109;28;20302;-72
2022/09/08 09:29:26;;;;;;;1.17;0.93;;;26.40;81.20;;;;;;10465593;28;20230;-72
2022/09/08 09:34:51;;;;;;;2.00;0.80;;;26.50;83.70;;;;;;10480670;28;20293;-72
2022/09/08 09:39:52;;;;;;;2.40;0.77;;;28.00;75.10;;;;;;10477750;28;20301;-71
2022/09/08 09:45:10;;;;;;;1.80;1.00;;;26.20;78.90;;;;;;10481324;28;20307;-72
2022/09/08 09:50:38;;;;;;;1.73;0.93;;;24.40;90.10;;;;;;10489586;28;20266;-71
2022/09/08 09:55:57;;;;;;;2.33;0.80;;;24.80;92.60;;;;;;10468128;28;20265;-72
2022/09/08 10:01:16;;;;;;;1.83;0.90;;;26.10;84.80;;;;;;10476449;28;20687;-71
2022/09/08 10:06:39;;;;;;;1.00;0.90;;;25.20;88.50;;;;;;10471548;28;20223;-72
2022/09/08 10:12:16;;;;;;;1.37;0.77;;;24.60;91.00;;;;;;10465493;28;20276;-71
2022/09/08 10:17:41;;;;;;;0.97;0.40;;;25.50;90.70;;;;;;10475999;28;20224;-72
2022/09/08 10:23:11;;;;;;;1.20;0.67;;;29.90;63.60;;;;;;10466965;28;20242;-71
2022/09/08 10:28:36;;;;;;;0.90;0.57;;;28.60;63.10;;;;;;10472305;28;20316;-72
2022/09/08 10:33:55;;;;;;;2.63;0.50;;;26.50;70.00;;;;;;10466731;28;20216;-72
2022/09/08 10:39:11;;;;;;;3.37;1.00;;;24.90;75.20;;;;;;10474005;28;20229;-72
2022/09/08 10:44:32;;;;;;;1.50;0.60;;;24.20;85.10;;;;;;10470336;28;20302;-71
2022/09/08 10:49:58;;;;;;;1.33;0.60;;;24.60;86.80;;;;;;10473345;28;20676;-71
2022/09/08 10:55:27;;;;;;;2.27;0.90;;;25.30;85.30;;;;;;10478980;28;20654;-71
2022/09/08 11:00:53;;;;;;;1.63;0.57;;;26.50;77.00;;;;;;10464302;28;20233;-71
2022/09/08 11:06:27;;;;;;;3.63;0.90;;;27.60;72.10;;;;;;10459364;28;20327;-71
2022/09/08 11:11:39;;;;;;;1.37;0.70;;;27.40;68.70;;;;;;10470767;28;20298;-72
2022/09/08 11:17:26;;;;;;;1.30;0.70;;;26.80;68.90;;;;;;10472464;28;20697;-72
2022/09/08 11:22:45;;;;;;;2.57;0.80;;;26.40;69.90;;;;;;10476756;28;20219;-71
2022/09/08 11:28:12;;;;;;;1.83;0.80;;;26.10;70.80;;;;;;10472763;28;20231;-71
2022/09/08 11:33:38;;;;;;;1.60;0.67;;;25.60;72.00;;;;;;10470666;28;20225;-71
2022/09/08 11:39:00;;;;;;;4.70;2.43;;;25.40;73.70;;;;;;10462582;28;20219;-71
2022/09/08 11:44:38;;;;;;;2.90;2.63;;;25.30;75.60;;;;;;10472640;28;20223;-71
2022/09/08 11:50:08;;;;;;;2.57;1.10;;;25.70;73.70;;;;;;10464184;28;20239;-72
2022/09/08 11:55:33;;;;;;;2.07;0.90;;;26.00;71.70;;;;;;10470608;28;20212;-72
2022/09/08 12:01:11;;;;;;;1.33;0.80;;;26.00;70.90;;;;;;10478365;28;20761;-71
2022/09/08 12:06:17;;;;;;;1.77;1.00;;;26.20;70.80;;;;;;10470445;28;20259;-71
2022/09/08 12:11:48;;;;;;;2.80;1.70;;;25.70;71.40;;;;;;10475695;28;20261;-71
2022/09/08 12:17:00;;;;;;;5.27;0.83;;;25.30;73.70;;;;;;10462690;28;20253;-71
2022/09/08 12:22:29;;;;;;;2.03;0.77;;;24.90;75.00;;;;;;10467709;28;20250;-70
2022/09/08 12:27:52;;;;;;;2.73;0.87;;;24.60;77.50;;;;;;10461079;28;20318;-72
2022/09/08 12:33:01;;;;;;;3.73;0.90;;;24.40;78.70;;;;;;10467944;28;20308;-71
2022/09/08 12:38:19;;;;;;;1.70;0.70;;;24.50;79.60;;;;;;10470030;28;20223;-71
2022/09/08 12:43:35;;;;;;;1.90;0.67;;;24.50;80.00;;;;;;10475611;28;20893;-71
2022/09/08 12:49:10;;;;;;;2.27;0.80;;;24.60;78.10;;;;;;10465323;28;20229;-71
2022/09/08 12:54:22;;;;;;;1.60;0.83;;;24.70;76.80;;;;;;10473701;28;20226;-72
2022/09/08 12:59:38;;;;;;;2.50;0.90;;;24.70;76.80;;;;;;10467921;28;20246;-72
2022/09/08 13:05:16;;;;;;;3.70;1.23;;;24.80;78.10;;;;;;10455756;28;20215;-70
2022/09/08 13:10:16;;;;;;;3.13;0.90;;;24.40;77.70;;;;;;10469911;28;20219;-72
2022/09/08 13:15:32;;;;;;;2.83;0.70;;;24.10;79.10;;;;;;10473323;28;20180;-71
2022/09/08 13:21:12;;;;;;;2.50;0.67;;;24.10;78.90;;;;;;10460680;28;20288;-72
2022/09/08 13:26:15;;;;;;;1.50;0.70;;;24.40;77.60;;;;;;10448546;28;20249;-72
2022/09/08 13:31:44;;;;;;;2.40;0.87;;;24.30;76.20;;;;;;10473133;28;20766;-72
2022/09/08 13:37:06;;;;;;;5.00;0.70;;;24.40;75.20;;;;;;10460692;28;20822;-71
2022/09/08 13:42:37;;;;;;;4.80;1.00;;;24.50;76.00;;;;;;10479365;28;20697;-71
2022/09/08 13:47:56;;;;;;;3.60;0.80;;;24.80;73.10;;;;;;10467881;28;20260;-72
2022/09/08 13:53:14;;;;;;;4.00;1.13;;;25.10;71.30;;;;;;10477050;28;20242;-71
2022/09/08 13:58:46;;;;;;;1.57;0.77;;;25.30;71.80;;;;;;10480705;28;20230;-71
2022/09/08 14:04:02;;;;;;;1.97;0.70;;;25.30;70.20;;;;;;10471251;28;20218;-71
2022/09/08 14:09:20;;;;;;;1.57;0.90;;;24.80;70.50;;;;;;10477734;28;20224;-71
2022/09/08 14:14:42;;;;;;;2.73;0.90;;;24.50;71.80;;;;;;10480939;28;20751;-71
2022/09/08 14:20:10;;;;;;;2.03;0.80;;;24.10;74.30;;;;;;10469999;28;20224;-71
2022/09/08 14:25:32;;;;;;;4.53;1.10;;;23.60;76.50;;;;;;10472953;28;20232;-71
2022/09/08 14:31:11;;;;;;;4.27;1.03;;;23.20;79.00;;;;;;10468289;28;20228;-71
2022/09/08 14:36:49;;;;;;;3.87;1.00;;;23.10;79.80;;;;;;10462544;28;20261;-70
2022/09/08 14:41:53;;;;;;;3.47;1.00;;;23.40;79.50;;;;;;10469276;28;20237;-71
2022/09/08 14:47:03;;;;;;;2.33;0.90;;;23.50;79.60;;;;;;10475444;28;20714;-71
2022/09/08 14:52:32;;;;;;;3.57;1.10;;;23.30;81.40;;;;;;10477103;28;20221;-71
2022/09/08 14:58:15;;;;;;;2.43;0.87;;;23.30;82.70;;;;;;10472155;28;20219;-70
2022/09/08 15:03:36;;;;;;;4.57;1.07;;;24.00;80.70;;;;;;10477041;28;20219;-71
2022/09/08 15:08:39;;;;;;;3.33;0.90;;;24.50;76.60;;;;;;10449975;28;20771;-71
2022/09/08 15:14:01;;;;;;;4.73;0.93;;;24.70;75.30;;;;;;10472976;28;20311;-71
2022/09/08 15:19:13;;;;;;;3.37;1.10;;;24.50;74.70;;;;;;10473939;28;20216;-72
2022/09/08 15:24:26;;;;;;;2.67;0.90;;;24.00;77.90;;;;;;10490728;28;20238;-71
2022/09/08 15:30:12;;;;;;;3.20;0.70;;;23.50;80.40;;;;;;10462510;28;20765;-70
2022/09/08 15:35:34;;;;;;;2.27;0.93;;;22.80;83.00;;;;;;10471084;28;20204;-71
2022/09/08 15:40:34;;;;;;;2.33;0.70;;;22.30;85.90;;;;;;10472473;28;20235;-71
2022/09/08 15:45:54;;;;;;;3.40;1.17;;;22.10;89.20;;;;;;10475846;28;20282;-71
2022/09/08 15:51:14;;;;;;;2.90;1.30;;;22.00;90.60;;;;;;10473025;28;20241;-71
2022/09/08 15:57:02;;;;;;;3.37;1.10;;;22.10;91.90;;;;;;10470573;28;20589;-71
2022/09/08 16:02:31;;;;;;;3.27;1.17;;;22.30;91.80;;;;;;10467793;28;20254;-71
2022/09/08 16:07:49;;;;;;;3.50;1.60;;;22.50;91.80;;;;;;10469060;28;20223;-71
2022/09/08 16:13:15;;;;;;;4.97;1.17;;;22.80;91.20;;;;;;10471395;28;20214;-72
2022/09/08 16:18:26;;;;;;;6.23;1.40;;;22.80;91.10;;;;;;10484967;28;20367;-72
2022/09/08 16:23:38;;;;;;;3.50;0.93;;;22.70;91.40;;;;;;10468101;28;20265;-71
2022/09/08 16:28:53;;;;;;;3.47;1.07;;;22.70;91.70;;;;;;10476450;28;20223;-71
2022/09/08 16:34:09;;;;;;;2.57;1.10;;;22.60;92.40;;;;;;10470299;28;20230;-70
2022/09/08 16:39:23;;;;;;;2.70;1.10;;;22.50;93.50;;;;;;10469746;28;20243;-72
2022/09/08 16:44:45;;;;;;;3.73;1.43;;;22.50;94.30;;;;;;10465873;28;20230;-71
2022/09/08 16:50:05;;;;;;;2.80;1.47;;;22.20;94.50;;;;;;10465359;28;20244;-71
2022/09/08 16:55:28;;;;;;;2.53;1.13;;;22.00;95.40;;;;;;10462020;28;20227;-71
2022/09/08 17:00:57;;;;;;;3.43;1.20;;;21.90;96.40;;;;;;10461746;28;20901;-71
2022/09/08 17:06:08;;;;;;;2.43;1.30;;;21.90;97.10;;;;;;10478588;28;20234;-71
2022/09/08 17:11:35;;;;;;;2.47;1.20;;;21.70;98.00;;;;;;10476251;28;20306;-71
2022/09/08 17:17:04;;;;;;;6.00;1.50;;;21.50;98.70;;;;;;10469805;28;20227;-72
2022/09/08 17:22:25;;;;;;;3.13;1.43;;;21.20;99.90;;;;;;10474777;28;20230;-72
2022/09/08 17:27:54;;;;;;;3.57;1.50;;;20.90;99.90;;;;;;10465349;28;20245;-72
2022/09/08 17:33:01;;;;;;;4.10;2.17;;;20.60;99.90;;;;;;10492778;28;20229;-71
2022/09/08 17:38:22;;;;;;;7.40;1.53;;;20.40;99.90;;;;;;10476342;28;20575;-70
2022/09/08 17:43:29;;;;;;;3.97;2.00;;;20.30;99.90;;;;;;10465016;28;20236;-71
2022/09/08 17:48:41;;;;;;;5.00;2.20;;;20.00;99.90;;;;;;10471162;28;20218;-71
2022/09/08 17:53:53;;;;;;;3.40;1.90;;;19.90;99.90;;;;;;10474113;28;20245;-70
2022/09/08 17:59:38;;;;;;;4.53;2.10;;;19.70;99.90;;;;;;10476770;28;20246;-71
2022/09/08 18:04:40;;;;;;;3.20;1.50;;;19.60;99.90;;;;;;10468921;28;20235;-71
2022/09/08 18:10:00;;;;;;;4.00;1.70;;;19.40;99.90;;;;;;10473059;28;20238;-72
2022/09/08 18:15:13;;;;;;;2.73;1.50;;;19.30;99.90;;;;;;10474083;28;20660;-70
2022/09/08 18:20:18;;;;;;;3.77;2.00;;;19.30;99.90;;;;;;10477758;28;20223;-71
2022/09/08 18:25:35;;;;;;;4.63;1.73;;;19.20;99.90;;;;;;10470561;28;20258;-71
2022/09/08 18:30:38;;;;;;;3.47;1.60;;;19.20;99.90;;;;;;10464852;28;20221;-71
2022/09/08 18:35:41;;;;;;;4.90;2.37;;;19.10;99.90;;;;;;10474607;28;20759;-71
2022/09/08 18:40:49;;;;;;;4.73;2.57;;;19.00;99.90;;;;;;10469331;28;20229;-71
2022/09/08 18:46:07;;;;;;;7.13;1.60;;;18.90;99.90;;;;;;10470771;28;20240;-71
2022/09/08 18:51:31;;;;;;;3.53;1.40;;;18.80;99.90;;;;;;10475521;28;20232;-71
2022/09/08 18:56:41;;;;;;;5.03;1.77;;;18.70;99.90;;;;;;10461785;28;20226;-71
2022/09/08 19:02:14;;;;;;;3.63;1.83;;;18.60;99.90;;;;;;10473199;28;20643;-71
2022/09/08 19:07:52;;;;;;;4.07;1.60;;;18.50;99.90;;;;;;10471138;28;20225;-72
2022/09/08 19:13:00;;;;;;;3.43;1.50;;;18.40;99.90;;;;;;10457348;28;20219;-70
2022/09/08 19:18:01;;;;;;;2.37;1.50;;;18.40;99.90;;;;;;10466970;28;20311;-71
2022/09/08 19:23:25;;;;;;;4.60;2.00;;;18.30;99.90;;;;;;10469155;28;20271;-71
2022/09/08 19:28:29;;;;;;;6.07;1.67;;;18.30;99.90;;;;;;10459005;28;20229;-71
2022/09/08 19:33:57;;;;;;;3.03;1.50;;;18.30;99.90;;;;;;10474401;28;20274;-71
2022/09/08 19:39:11;;;;;;;4.10;2.00;;;18.20;99.90;;;;;;10472010;28;20250;-70
2022/09/08 19:44:40;;;;;;;5.80;1.60;;;18.10;99.90;;;;;;10469016;28;20219;-71
2022/09/08 19:49:58;;;;;;;5.30;1.50;;;18.10;99.90;;;;;;10457850;28;20231;-71
2022/09/08 19:55:31;;;;;;;3.77;1.57;;;18.00;99.90;;;;;;10470418;28;20844;-71
2022/09/08 20:00:34;;;;;;;2.70;1.50;;;18.00;99.90;;;;;;10456372;28;20265;-71
2022/09/08 20:05:47;;;;;;;3.27;1.20;;;17.90;99.90;;;;;;10467728;28;20228;-71
2022/09/08 20:10:49;;;;;;;4.27;1.40;;;17.90;99.90;;;;;;10471904;28;20315;-70
2022/09/08 20:16:06;;;;;;;3.23;1.60;;;17.90;99.90;;;;;;10469297;28;20219;-71
2022/09/08 20:21:41;;;;;;;4.23;1.60;;;17.90;99.90;;;;;;10465733;28;20228;-71
2022/09/08 20:26:46;;;;;;;5.77;1.60;;;17.80;99.90;;;;;;10462432;28;20719;-71
2022/09/08 20:31:55;;;;;;;2.63;1.40;;;17.80;99.90;;;;;;10471783;28;20303;-71
2022/09/08 20:36:58;;;;;;;4.63;1.70;;;17.90;99.90;;;;;;10470133;28;20219;-71
2022/09/08 20:42:29;;;;;;;6.10;1.23;;;18.00;99.90;;;;;;10469432;28;20239;-71
2022/09/08 20:47:35;;;;;;;4.20;1.50;;;18.10;99.90;;;;;;10476885;28;20287;-71
2022/09/08 20:52:59;;;;;;;3.60;1.17;;;18.20;99.90;;;;;;10474492;28;20245;-71
2022/09/08 20:58:16;;;;;;;2.37;1.00;;;18.10;99.90;;;;;;10473422;28;20241;-69
2022/09/08 21:03:30;;;;;;;4.33;0.90;;;18.00;99.90;;;;;;10467735;28;20208;-69
2022/09/08 21:08:35;;;;;;;4.00;1.00;;;17.90;99.90;;;;;;10463903;28;20251;-70
2022/09/08 21:13:49;;;;;;;5.33;1.33;;;17.90;99.90;;;;;;10469038;28;20313;-70
2022/09/08 21:19:10;;;;;;;4.93;1.20;;;17.90;99.90;;;;;;10468565;28;20224;-70
2022/09/08 21:24:33;;;;;;;3.73;1.10;;;18.00;99.90;;;;;;10470528;28;20767;-69
2022/09/08 21:29:55;;;;;;;3.93;0.97;;;18.10;99.90;;;;;;10461426;28;20229;-73
2022/09/08 21:35:19;;;;;;;2.97;1.10;;;18.20;99.90;;;;;;10472683;28;20233;-69
2022/09/08 21:40:40;;;;;;;2.07;0.90;;;18.30;99.90;;;;;;10475063;28;20232;-71
2022/09/08 21:45:48;;;;;;;3.57;0.90;;;18.30;99.90;;;;;;10463161;28;20250;-71
2022/09/08 21:50:59;;;;;;;2.20;1.17;;;18.30;99.90;;;;;;10480727;28;20221;-71
2022/09/08 21:56:15;;;;;;;1.67;0.70;;;18.30;99.90;;;;;;10478920;28;20866;-71
2022/09/08 22:01:42;;;;;;;2.03;0.77;;;18.30;99.90;;;;;;10473475;28;20243;-72
2022/09/08 22:06:50;;;;;;;3.37;1.00;;;18.20;99.90;;;;;;10484794;28;20228;-72
2022/09/08 22:11:58;;;;;;;2.20;0.87;;;18.20;99.90;;;;;;10480813;28;20221;-71
2022/09/08 22:17:02;;;;;;;4.00;1.10;;;18.20;99.90;;;;;;10478662;28;20282;-71
2022/09/08 22:22:08;;;;;;;2.73;0.93;;;18.10;99.90;;;;;;10476104;28;20224;-70
2022/09/08 22:27:28;;;;;;;3.07;1.07;;;18.10;99.90;;;;;;10478943;28;20246;-71
2022/09/08 22:32:42;;;;;;;2.40;1.50;;;18.10;99.90;;;;;;10464659;28;20221;-73
2022/09/08 22:38:28;;;;;;;3.77;1.00;;;18.00;99.90;;;;;;10479417;28;20270;-71
2022/09/08 22:43:44;;;;;;;3.07;1.10;;;18.00;99.90;;;;;;10472266;28;20726;-71
2022/09/08 22:49:17;;;;;;;3.63;1.00;;;17.90;99.90;;;;;;10479837;28;20219;-71
2022/09/08 22:54:44;;;;;;;4.23;1.03;;;17.90;99.90;;;;;;10479563;28;20219;-71
2022/09/08 22:59:55;;;;;;;4.60;0.90;;;17.80;99.90;;;;;;10468160;28;20228;-71
2022/09/08 23:04:59;;;;;;;2.20;1.00;;;17.90;99.90;;;;;;10472156;28;20224;-71
2022/09/08 23:10:16;;;;;;;5.13;1.27;;;18.00;99.90;;;;;;10479027;28;20563;-71
2022/09/08 23:15:45;;;;;;;3.00;1.20;;;18.00;99.90;;;;;;10475942;28;20248;-71
2022/09/08 23:21:15;;;;;;;4.17;1.00;;;18.00;99.90;;;;;;10475962;28;20437;-72
2022/09/08 23:26:33;;;;;;;2.93;1.10;;;18.10;99.90;;;;;;10472463;28;20218;-72
2022/09/08 23:31:37;;;;;;;4.40;1.10;;;18.10;99.90;;;;;;10473303;28;20211;-73
2022/09/08 23:36:48;;;;;;;3.70;1.23;;;18.10;99.90;;;;;;10470790;28;20222;-72
2022/09/08 23:41:49;;;;;;;5.00;1.20;;;18.00;99.90;;;;;;10475631;28;20244;-73
2022/09/08 23:47:00;;;;;;;2.17;0.83;;;18.00;99.90;;;;;;10473663;28;20252;-73
2022/09/08 23:52:06;;;;;;;4.00;1.00;;;18.00;99.90;;;;;;10477623;28;20212;-73
2022/09/08 23:57:08;;;;;;;4.40;1.40;;;18.00;99.90;;;;;;10471618;28;20283;-72
